CSAV Brasilia — A8VK7 — position and weather

sailwx.info

Track history (hours):
 
Tides and Currents Weather Stations Pressure Air Temp Water Temp Dewpoint Dewpoint Depression Visibility Wind Speed Wind Dir Waves Ship Positions

CSAV Brasilia

Last reported at 2014-Jun-17 11:33 UTC. Time now 2014-Jul-31 01:19 UTC.
Position N 38°37' W 030°32'.
Warning: this ship's position is 43 days out of date.

Length 294 m; draft 11.8 m.

Type: Ship (hazmat cat C). MMSI: 636092017.

Date/timePositionNaut miles runAvg speedWind from/ knotsBaromVisibWave heightAir tempDewpointWater temp
2014-Jun-17 11:33N 38°37' W 030°32'1717.1
2014-Jun-17 10:33N 38°46' W 030°14'1716.8
2014-Jun-17 09:33N 38°55' W 029°55'1716.7
2014-Jun-17 08:33N 39°03' W 029°37'1616.4
2014-Jun-17 07:33N 39°12' W 029°19'1616.2
2014-Jun-17 06:33N 39°20' W 029°01'1616.3
2014-Jun-17 05:33N 39°28' W 028°43'1616.4
2014-Jun-17 04:33N 39°37' W 028°25'1716.9
2014-Jun-17 03:33N 39°45' W 028°05'  
2014-Jun-13 17:33N 50°27' W 000°19'1817.7
2014-Jun-13 16:33N 50°32' E 000°08'1818.2
2014-Jun-13 15:33N 50°37' E 000°35'1717.4
2014-Jun-13 14:33N 50°47' E 000°57'1616.3
2014-Jun-13 13:34N 50°59' E 001°16'1514.5
2014-Jun-13 12:33N 51°07' E 001°35'1414.3
2014-Jun-13 11:34N 51°18' E 001°49'1616.2
2014-Jun-13 10:34N 51°31' E 002°04'1818.2
2014-Jun-13 09:34N 51°44' E 002°24'2118.7
2014-Jun-13 08:26N 52°01' E 002°46'1818.8
2014-Jun-13 07:30N 52°15' E 003°03'1718.2
2014-Jun-13 06:33N 52°29' E 003°20'1717.3
2014-Jun-13 05:33N 52°42' E 003°37'1716.5
2014-Jun-13 04:32N 52°55' E 003°55'1616.0
2014-Jun-13 03:31N 53°05' E 004°16'1515.4
2014-Jun-13 02:31N 53°18' E 004°30'1616.7
2014-Jun-13 01:34N 53°31' E 004°46'1818.4
2014-Jun-13 00:34N 53°38' E 005°15'1818.0
2014-Jun-12 23:34N 53°44' E 005°44'1717.3
2014-Jun-12 22:33N 53°49' E 006°12'1716.6
2014-Jun-12 21:34N 53°53' E 006°39'1615.8
2014-Jun-12 20:32N 53°57' E 007°06'1515.4
2014-Jun-12 19:33N 53°60' E 007°31'1615.6
2014-Jun-12 18:34N 54°02' E 007°57'1413.7
2014-Jun-12 17:33N 53°60' E 008°20'1717.0
2014-Jun-12 16:33N 53°51' E 008°45'1515.2
2014-Jun-12 15:33N 53°53' E 009°11'1413.7
2014-Jun-12 14:31N 53°43' E 009°28'1111.0
2014-Jun-12 13:33N 53°34' E 009°39'8 8.1
2014-Jun-12 12:33N 53°33' E 009°52'1 1.4
2014-Jun-12 11:33N 53°32' E 009°54'0 0.0
2014-Jun-12 10:33N 53°32' E 009°54'0 0.0
2014-Jun-12 09:33N 53°32' E 009°54'0 0.0
2014-Jun-12 08:32N 53°32' E 009°54'0 0.0
2014-Jun-12 07:32N 53°32' E 009°54'0 0.0
2014-Jun-12 06:32N 53°32' E 009°54'0 0.0
2014-Jun-12 05:32N 53°32' E 009°54'0 0.0
2014-Jun-12 04:32N 53°32' E 009°54'0 0.0
2014-Jun-12 03:32N 53°32' E 009°54'0 0.0
2014-Jun-12 02:32N 53°32' E 009°54'0 0.0
2014-Jun-12 01:32N 53°32' E 009°54'0 0.0
2014-Jun-12 00:32N 53°32' E 009°54'0 0.0
2014-Jun-11 23:32N 53°32' E 009°54'0 0.0
2014-Jun-11 22:32N 53°32' E 009°54'1 0.8
2014-Jun-11 21:33N 53°33' E 009°53'9 9.1
2014-Jun-11 20:33N 53°35' E 009°38'1110.9
2014-Jun-11 19:33N 53°43' E 009°28'1511.3
2014-Jun-11 18:13N 53°53' E 009°07'710.3
2014-Jun-11 17:33N 53°51' E 008°56'1010.1
2014-Jun-11 16:33N 53°55' E 008°41'1313.1
2014-Jun-11 15:33N 53°59' E 008°20'1514.9
2014-Jun-11 14:34N 53°57' E 007°55'6 5.7
2014-Jun-11 13:34N 53°52' E 007°56'1717.3
2014-Jun-11 12:34N 53°42' E 008°20'10 9.5
2014-Jun-11 11:29N 53°34' E 008°32'0 0.0
2014-Jun-11 10:26N 53°34' E 008°32'0 0.0
2014-Jun-11 09:32N 53°34' E 008°32'0 0.0
2014-Jun-11 08:32N 53°34' E 008°32'0 0.0
2014-Jun-11 07:32N 53°34' E 008°32'0 0.0
2014-Jun-11 06:32N 53°34' E 008°32'0 0.0
2014-Jun-11 05:33N 53°34' E 008°32'0 0.0
2014-Jun-11 04:33N 53°34' E 008°32'0 0.0
2014-Jun-11 03:33N 53°34' E 008°32'0 0.0
2014-Jun-11 02:33N 53°34' E 008°32'0 0.0
2014-Jun-11 01:33N 53°34' E 008°32'0 0.0
2014-Jun-11 00:33N 53°34' E 008°32'0 0.0
2014-Jun-10 23:33N 53°34' E 008°32'0 0.0
2014-Jun-10 22:33N 53°34' E 008°32'0 0.0
2014-Jun-10 21:33N 53°34' E 008°32'0 0.0
2014-Jun-10 20:33N 53°34' E 008°32'0 0.0
2014-Jun-10 19:33N 53°34' E 008°32'0 0.2
2014-Jun-10 18:33N 53°34' E 008°32'1414.4
2014-Jun-10 17:34N 53°44' E 008°14'1716.8
2014-Jun-10 16:33N 53°52' E 007°50'1312.7
2014-Jun-10 15:33N 53°53' E 007°28'1818.1
2014-Jun-10 14:33N 53°49' E 006°58'3717.6
2014-Jun-10 12:28N 53°40' E 005°58'1617.4
2014-Jun-10 11:33N 53°35' E 005°33'1717.3
2014-Jun-10 10:33N 53°29' E 005°05'1716.8
2014-Jun-10 09:33N 53°21' E 004°40'1717.3
2014-Jun-10 08:33N 53°06' E 004°27'1817.5
2014-Jun-10 07:33N 52°51' E 004°13'1717.4
2014-Jun-10 06:33N 52°38' E 003°54'7016.1
2014-Jun-10 02:13N 51°54' E 002°24'1117.5
2014-Jun-10 01:33N 51°52' E 002°06'1515.2
2014-Jun-10 00:33N 51°51' E 001°41'1414.0
2014-Jun-09 23:34N 51°41' E 001°26'1918.9
2014-Jun-09 22:34N 51°30' E 001°01'1616.4
2014-Jun-09 21:33N 51°30' E 000°35'9 9.2
2014-Jun-09 20:33N 51°27' E 000°21'1 1.0
2014-Jun-09 19:32N 51°28' E 000°20'0 0.0
2014-Jun-09 18:32N 51°28' E 000°20'0 0.0
2014-Jun-09 17:34N 51°28' E 000°20'0 0.0
2014-Jun-09 16:33N 51°28' E 000°20'0 0.0
2014-Jun-09 15:34N 51°28' E 000°20'0 0.0
2014-Jun-09 14:33N 51°28' E 000°20'0 0.0
2014-Jun-09 13:34N 51°28' E 000°20'0 0.0
2014-Jun-09 12:33N 51°28' E 000°20'0 0.0
2014-Jun-09 11:33N 51°28' E 000°20'0 0.0
2014-Jun-09 10:34N 51°28' E 000°20'0 0.0
2014-Jun-09 09:34N 51°28' E 000°20'0 0.0
2014-Jun-09 08:34N 51°28' E 000°20'0 0.0
2014-Jun-09 07:33N 51°28' E 000°20'0 0.0
2014-Jun-09 06:33N 51°28' E 000°20'0 0.0
2014-Jun-09 05:34N 51°28' E 000°20'0 0.0
2014-Jun-09 04:34N 51°28' E 000°20'0 0.0
2014-Jun-09 03:34N 51°28' E 000°20'0 0.0
2014-Jun-09 02:33N 51°28' E 000°20'0 0.0
2014-Jun-09 01:33N 51°28' E 000°20'0 0.0
2014-Jun-09 00:33N 51°28' E 000°20'0 0.0
2014-Jun-08 23:32N 51°28' E 000°20'0 0.0
2014-Jun-08 22:34N 51°28' E 000°20'0 0.0
2014-Jun-08 21:33N 51°28' E 000°20'0 0.0
2014-Jun-08 20:33N 51°28' E 000°20'0 0.0
2014-Jun-08 19:33N 51°28' E 000°20'0 0.0
2014-Jun-08 18:33N 51°28' E 000°20'0 0.0
2014-Jun-08 17:34N 51°28' E 000°20'0 0.0
2014-Jun-08 16:34N 51°28' E 000°20'0 0.0
2014-Jun-08 15:34N 51°28' E 000°20'0 0.0
2014-Jun-08 14:34N 51°28' E 000°20'0 0.0
2014-Jun-08 13:34N 51°28' E 000°20'0 0.0
2014-Jun-08 12:33N 51°28' E 000°20'0 0.0
2014-Jun-08 11:34N 51°28' E 000°20'0 0.0
2014-Jun-08 10:34N 51°28' E 000°20'0 0.0
2014-Jun-08 09:33N 51°28' E 000°20'0 0.0
2014-Jun-08 08:33N 51°28' E 000°20'4 4.3
2014-Jun-08 07:33N 51°28' E 000°27'8 8.3
2014-Jun-08 06:33N 51°30' E 000°40'1313.4
2014-Jun-08 05:33N 51°30' E 001°01'1717.2
2014-Jun-08 04:34N 51°39' E 001°24'1514.8
2014-Jun-08 03:33N 51°51' E 001°38'7 6.7
2014-Jun-08 02:33N 51°50' E 001°49'8 8.0
2014-Jun-08 01:33N 51°42' E 001°49'7 7.1
2014-Jun-08 00:33N 51°36' E 001°52'1 1.4
2014-Jun-07 23:33N 51°34' E 001°51'2 1.9
2014-Jun-07 22:33N 51°32' E 001°51'8 7.5
2014-Jun-07 21:33N 51°26' E 001°59'1211.5
2014-Jun-07 20:34N 51°21' E 002°15'1010.0
2014-Jun-07 19:33N 51°23' E 002°31'1010.4
2014-Jun-07 18:33N 51°25' E 002°47'1615.7
2014-Jun-07 17:33N 51°24' E 003°12'1514.6
2014-Jun-07 16:33N 51°26' E 003°36'1111.4
2014-Jun-07 15:34N 51°21' E 003°52'1010.0
2014-Jun-07 14:33N 51°22' E 004°08'6 5.9
2014-Jun-07 13:34N 51°21' E 004°17'1 1.0
2014-Jun-07 12:33N 51°20' E 004°18'1 1.2
2014-Jun-07 11:33N 51°20' E 004°20'  
Track history (hours):
 
Tides and Currents Weather Stations Pressure Air Temp Water Temp Dewpoint Dewpoint Depression Visibility Wind Speed Wind Dir Waves Ship Positions

CSAV Brasilia

Last reported at 2014-Jun-17 11:33 UTC. Time now 2014-Jul-31 01:19 UTC.
Position N 38°37' W 030°32'.
Warning: this ship's position is 43 days out of date.

Length 294 m; draft 11.8 m.

Type: Ship (hazmat cat C). MMSI: 636092017.

Date/timePositionNaut miles runAvg speedWind from/ knotsBaromVisibWave heightAir tempDewpointWater temp
2014-Jun-17 11:33N 38°37' W 030°32'1717.1
2014-Jun-17 10:33N 38°46' W 030°14'1716.8
2014-Jun-17 09:33N 38°55' W 029°55'1716.7
2014-Jun-17 08:33N 39°03' W 029°37'1616.4
2014-Jun-17 07:33N 39°12' W 029°19'1616.2
2014-Jun-17 06:33N 39°20' W 029°01'1616.3
2014-Jun-17 05:33N 39°28' W 028°43'1616.4
2014-Jun-17 04:33N 39°37' W 028°25'1716.9
2014-Jun-17 03:33N 39°45' W 028°05'  
2014-Jun-13 17:33N 50°27' W 000°19'1817.7
2014-Jun-13 16:33N 50°32' E 000°08'1818.2
2014-Jun-13 15:33N 50°37' E 000°35'1717.4
2014-Jun-13 14:33N 50°47' E 000°57'1616.3
2014-Jun-13 13:34N 50°59' E 001°16'1514.5
2014-Jun-13 12:33N 51°07' E 001°35'1414.3
2014-Jun-13 11:34N 51°18' E 001°49'1616.2
2014-Jun-13 10:34N 51°31' E 002°04'1818.2
2014-Jun-13 09:34N 51°44' E 002°24'2118.7
2014-Jun-13 08:26N 52°01' E 002°46'1818.8
2014-Jun-13 07:30N 52°15' E 003°03'1718.2
2014-Jun-13 06:33N 52°29' E 003°20'1717.3
2014-Jun-13 05:33N 52°42' E 003°37'1716.5
2014-Jun-13 04:32N 52°55' E 003°55'1616.0
2014-Jun-13 03:31N 53°05' E 004°16'1515.4
2014-Jun-13 02:31N 53°18' E 004°30'1616.7
2014-Jun-13 01:34N 53°31' E 004°46'1818.4
2014-Jun-13 00:34N 53°38' E 005°15'1818.0
2014-Jun-12 23:34N 53°44' E 005°44'1717.3
2014-Jun-12 22:33N 53°49' E 006°12'1716.6
2014-Jun-12 21:34N 53°53' E 006°39'1615.8
2014-Jun-12 20:32N 53°57' E 007°06'1515.4
2014-Jun-12 19:33N 53°60' E 007°31'1615.6
2014-Jun-12 18:34N 54°02' E 007°57'1413.7
2014-Jun-12 17:33N 53°60' E 008°20'1717.0
2014-Jun-12 16:33N 53°51' E 008°45'1515.2
2014-Jun-12 15:33N 53°53' E 009°11'1413.7
2014-Jun-12 14:31N 53°43' E 009°28'1111.0
2014-Jun-12 13:33N 53°34' E 009°39'8 8.1
2014-Jun-12 12:33N 53°33' E 009°52'1 1.4
2014-Jun-12 11:33N 53°32' E 009°54'0 0.0
2014-Jun-12 10:33N 53°32' E 009°54'0 0.0
2014-Jun-12 09:33N 53°32' E 009°54'0 0.0
2014-Jun-12 08:32N 53°32' E 009°54'0 0.0
2014-Jun-12 07:32N 53°32' E 009°54'0 0.0
2014-Jun-12 06:32N 53°32' E 009°54'0 0.0
2014-Jun-12 05:32N 53°32' E 009°54'0 0.0
2014-Jun-12 04:32N 53°32' E 009°54'0 0.0
2014-Jun-12 03:32N 53°32' E 009°54'0 0.0
2014-Jun-12 02:32N 53°32' E 009°54'0 0.0
2014-Jun-12 01:32N 53°32' E 009°54'0 0.0
2014-Jun-12 00:32N 53°32' E 009°54'0 0.0
2014-Jun-11 23:32N 53°32' E 009°54'0 0.0
2014-Jun-11 22:32N 53°32' E 009°54'1 0.8
2014-Jun-11 21:33N 53°33' E 009°53'9 9.1
2014-Jun-11 20:33N 53°35' E 009°38'1110.9
2014-Jun-11 19:33N 53°43' E 009°28'1511.3
2014-Jun-11 18:13N 53°53' E 009°07'710.3
2014-Jun-11 17:33N 53°51' E 008°56'1010.1
2014-Jun-11 16:33N 53°55' E 008°41'1313.1
2014-Jun-11 15:33N 53°59' E 008°20'1514.9
2014-Jun-11 14:34N 53°57' E 007°55'6 5.7
2014-Jun-11 13:34N 53°52' E 007°56'1717.3
2014-Jun-11 12:34N 53°42' E 008°20'10 9.5
2014-Jun-11 11:29N 53°34' E 008°32'0 0.0
2014-Jun-11 10:26N 53°34' E 008°32'0 0.0
2014-Jun-11 09:32N 53°34' E 008°32'0 0.0
2014-Jun-11 08:32N 53°34' E 008°32'0 0.0
2014-Jun-11 07:32N 53°34' E 008°32'0 0.0
2014-Jun-11 06:32N 53°34' E 008°32'0 0.0
2014-Jun-11 05:33N 53°34' E 008°32'0 0.0
2014-Jun-11 04:33N 53°34' E 008°32'0 0.0
2014-Jun-11 03:33N 53°34' E 008°32'0 0.0
2014-Jun-11 02:33N 53°34' E 008°32'0 0.0
2014-Jun-11 01:33N 53°34' E 008°32'0 0.0
2014-Jun-11 00:33N 53°34' E 008°32'0 0.0
2014-Jun-10 23:33N 53°34' E 008°32'0 0.0
2014-Jun-10 22:33N 53°34' E 008°32'0 0.0
2014-Jun-10 21:33N 53°34' E 008°32'0 0.0
2014-Jun-10 20:33N 53°34' E 008°32'0 0.0
2014-Jun-10 19:33N 53°34' E 008°32'0 0.2
2014-Jun-10 18:33N 53°34' E 008°32'1414.4
2014-Jun-10 17:34N 53°44' E 008°14'1716.8
2014-Jun-10 16:33N 53°52' E 007°50'1312.7
2014-Jun-10 15:33N 53°53' E 007°28'1818.1
2014-Jun-10 14:33N 53°49' E 006°58'3717.6
2014-Jun-10 12:28N 53°40' E 005°58'1617.4
2014-Jun-10 11:33N 53°35' E 005°33'1717.3
2014-Jun-10 10:33N 53°29' E 005°05'1716.8
2014-Jun-10 09:33N 53°21' E 004°40'1717.3
2014-Jun-10 08:33N 53°06' E 004°27'1817.5
2014-Jun-10 07:33N 52°51' E 004°13'1717.4
2014-Jun-10 06:33N 52°38' E 003°54'7016.1
2014-Jun-10 02:13N 51°54' E 002°24'1117.5
2014-Jun-10 01:33N 51°52' E 002°06'1515.2
2014-Jun-10 00:33N 51°51' E 001°41'1414.0
2014-Jun-09 23:34N 51°41' E 001°26'1918.9
2014-Jun-09 22:34N 51°30' E 001°01'1616.4
2014-Jun-09 21:33N 51°30' E 000°35'9 9.2
2014-Jun-09 20:33N 51°27' E 000°21'1 1.0
2014-Jun-09 19:32N 51°28' E 000°20'0 0.0
2014-Jun-09 18:32N 51°28' E 000°20'0 0.0
2014-Jun-09 17:34N 51°28' E 000°20'0 0.0
2014-Jun-09 16:33N 51°28' E 000°20'0 0.0
2014-Jun-09 15:34N 51°28' E 000°20'0 0.0
2014-Jun-09 14:33N 51°28' E 000°20'0 0.0
2014-Jun-09 13:34N 51°28' E 000°20'0 0.0
2014-Jun-09 12:33N 51°28' E 000°20'0 0.0
2014-Jun-09 11:33N 51°28' E 000°20'0 0.0
2014-Jun-09 10:34N 51°28' E 000°20'0 0.0
2014-Jun-09 09:34N 51°28' E 000°20'0 0.0
2014-Jun-09 08:34N 51°28' E 000°20'0 0.0
2014-Jun-09 07:33N 51°28' E 000°20'0 0.0
2014-Jun-09 06:33N 51°28' E 000°20'0 0.0
2014-Jun-09 05:34N 51°28' E 000°20'0 0.0
2014-Jun-09 04:34N 51°28' E 000°20'0 0.0
2014-Jun-09 03:34N 51°28' E 000°20'0 0.0
2014-Jun-09 02:33N 51°28' E 000°20'0 0.0
2014-Jun-09 01:33N 51°28' E 000°20'0 0.0
2014-Jun-09 00:33N 51°28' E 000°20'0 0.0
2014-Jun-08 23:32N 51°28' E 000°20'0 0.0
2014-Jun-08 22:34N 51°28' E 000°20'0 0.0
2014-Jun-08 21:33N 51°28' E 000°20'0 0.0
2014-Jun-08 20:33N 51°28' E 000°20'0 0.0
2014-Jun-08 19:33N 51°28' E 000°20'0 0.0
2014-Jun-08 18:33N 51°28' E 000°20'0 0.0
2014-Jun-08 17:34N 51°28' E 000°20'0 0.0
2014-Jun-08 16:34N 51°28' E 000°20'0 0.0
2014-Jun-08 15:34N 51°28' E 000°20'0 0.0
2014-Jun-08 14:34N 51°28' E 000°20'0 0.0
2014-Jun-08 13:34N 51°28' E 000°20'0 0.0
2014-Jun-08 12:33N 51°28' E 000°20'0 0.0
2014-Jun-08 11:34N 51°28' E 000°20'0 0.0
2014-Jun-08 10:34N 51°28' E 000°20'0 0.0
2014-Jun-08 09:33N 51°28' E 000°20'0 0.0
2014-Jun-08 08:33N 51°28' E 000°20'4 4.3
2014-Jun-08 07:33N 51°28' E 000°27'8 8.3
2014-Jun-08 06:33N 51°30' E 000°40'1313.4
2014-Jun-08 05:33N 51°30' E 001°01'1717.2
2014-Jun-08 04:34N 51°39' E 001°24'1514.8
2014-Jun-08 03:33N 51°51' E 001°38'7 6.7
2014-Jun-08 02:33N 51°50' E 001°49'8 8.0
2014-Jun-08 01:33N 51°42' E 001°49'7 7.1
2014-Jun-08 00:33N 51°36' E 001°52'1 1.4
2014-Jun-07 23:33N 51°34' E 001°51'2 1.9
2014-Jun-07 22:33N 51°32' E 001°51'8 7.5
2014-Jun-07 21:33N 51°26' E 001°59'1211.5
2014-Jun-07 20:34N 51°21' E 002°15'1010.0
2014-Jun-07 19:33N 51°23' E 002°31'1010.4
2014-Jun-07 18:33N 51°25' E 002°47'1615.7
2014-Jun-07 17:33N 51°24' E 003°12'1514.6
2014-Jun-07 16:33N 51°26' E 003°36'1111.4
2014-Jun-07 15:34N 51°21' E 003°52'1010.0
2014-Jun-07 14:33N 51°22' E 004°08'6 5.9
2014-Jun-07 13:34N 51°21' E 004°17'1 1.0
2014-Jun-07 12:33N 51°20' E 004°18'1 1.2
2014-Jun-07 11:33N 51°20' E 004°20'  

Dump ship's entire track history